sensor_id;sensor_type;location;lat;lon;timestamp;temperature;humidity
19586;DHT22;9939;49.246;9.106;2022-10-15T00:01:16;13.90;99.90
19586;DHT22;9939;49.246;9.106;2022-10-15T00:03:44;13.80;99.90
19586;DHT22;9939;49.246;9.106;2022-10-15T00:06:16;13.80;99.90
19586;DHT22;9939;49.246;9.106;2022-10-15T00:08:43;13.90;99.90
19586;DHT22;9939;49.246;9.106;2022-10-15T00:11:20;13.90;99.90
19586;DHT22;9939;49.246;9.106;2022-10-15T00:13:48;13.80;99.90
19586;DHT22;9939;49.246;9.106;2022-10-15T00:16:19;13.90;99.90
19586;DHT22;9939;49.246;9.106;2022-10-15T00:18:47;14.00;99.90
19586;DHT22;9939;49.246;9.106;2022-10-15T00:21:16;13.80;99.90
19586;DHT22;9939;49.246;9.106;2022-10-15T00:23:44;13.80;99.90
19586;DHT22;9939;49.246;9.106;2022-10-15T00:26:13;14.00;99.90
19586;DHT22;9939;49.246;9.106;2022-10-15T00:28:42;13.90;99.90
19586;DHT22;9939;49.246;9.106;2022-10-15T00:31:12;13.80;99.90
19586;DHT22;9939;49.246;9.106;2022-10-15T00:33:40;13.90;99.90
19586;DHT22;9939;49.246;9.106;2022-10-15T00:36:14;13.90;99.90
19586;DHT22;9939;49.246;9.106;2022-10-15T00:38:42;13.90;99.90
19586;DHT22;9939;49.246;9.106;2022-10-15T00:41:35;13.90;99.90
19586;DHT22;9939;49.246;9.106;2022-10-15T00:46:55;13.80;99.90
19586;DHT22;9939;49.246;9.106;2022-10-15T00:49:30;13.90;99.90
19586;DHT22;9939;49.246;9.106;2022-10-15T00:52:07;14.00;99.90
19586;DHT22;9939;49.246;9.106;2022-10-15T00:54:41;14.00;99.90
19586;DHT22;9939;49.246;9.106;2022-10-15T00:57:09;14.00;99.90
19586;DHT22;9939;49.246;9.106;2022-10-15T00:59:40;14.00;99.90
19586;DHT22;9939;49.246;9.106;2022-10-15T01:02:09;14.00;99.90
19586;DHT22;9939;49.246;9.106;2022-10-15T01:04:37;14.00;99.90
19586;DHT22;9939;49.246;9.106;2022-10-15T01:07:05;14.00;99.90
19586;DHT22;9939;49.246;9.106;2022-10-15T01:09:37;14.00;99.90
19586;DHT22;9939;49.246;9.106;2022-10-15T01:12:06;14.00;99.90
19586;DHT22;9939;49.246;9.106;2022-10-15T01:14:58;14.00;99.90
19586;DHT22;9939;49.246;9.106;2022-10-15T01:17:37;14.00;99.90
19586;DHT22;9939;49.246;9.106;2022-10-15T01:31:00;14.10;99.90
19586;DHT22;9939;49.246;9.106;2022-10-15T01:36:20;14.00;99.90
19586;DHT22;9939;49.246;9.106;2022-10-15T01:41:44;14.10;99.90
19586;DHT22;9939;49.246;9.106;2022-10-15T01:44:22;14.10;99.90
19586;DHT22;9939;49.246;9.106;2022-10-15T01:47:22;14.10;99.90
19586;DHT22;9939;49.246;9.106;2022-10-15T01:49:54;14.10;99.90
19586;DHT22;9939;49.246;9.106;2022-10-15T01:52:26;14.10;99.90
19586;DHT22;9939;49.246;9.106;2022-10-15T01:54:55;14.10;99.90
19586;DHT22;9939;49.246;9.106;2022-10-15T01:57:24;14.10;99.90
19586;DHT22;9939;49.246;9.106;2022-10-15T01:59:53;14.00;99.90
19586;DHT22;9939;49.246;9.106;2022-10-15T02:02:22;14.00;99.90
19586;DHT22;9939;49.246;9.106;2022-10-15T02:04:50;14.10;99.90
19586;DHT22;9939;49.246;9.106;2022-10-15T02:07:36;14.10;99.90
19586;DHT22;9939;49.246;9.106;2022-10-15T02:26:07;14.20;99.90
19586;DHT22;9939;49.246;9.106;2022-10-15T02:28:37;14.10;99.90
19586;DHT22;9939;49.246;9.106;2022-10-15T02:31:07;14.10;99.90
19586;DHT22;9939;49.246;9.106;2022-10-15T02:33:36;14.10;99.90
19586;DHT22;9939;49.246;9.106;2022-10-15T02:36:04;14.20;99.90
19586;DHT22;9939;49.246;9.106;2022-10-15T02:38:34;14.20;99.90
19586;DHT22;9939;49.246;9.106;2022-10-15T02:41:03;14.30;99.90
19586;DHT22;9939;49.246;9.106;2022-10-15T02:43:30;14.30;99.90
19586;DHT22;9939;49.246;9.106;2022-10-15T02:45:57;14.30;99.90
19586;DHT22;9939;49.246;9.106;2022-10-15T02:48:25;14.20;99.90
19586;DHT22;9939;49.246;9.106;2022-10-15T02:50:52;14.40;99.90
19586;DHT22;9939;49.246;9.106;2022-10-15T02:53:19;14.40;99.90
19586;DHT22;9939;49.246;9.106;2022-10-15T02:55:46;14.50;99.90
19586;DHT22;9939;49.246;9.106;2022-10-15T02:58:13;14.70;99.90
19586;DHT22;9939;49.246;9.106;2022-10-15T03:00:42;14.80;99.90
19586;DHT22;9939;49.246;9.106;2022-10-15T03:03:11;14.90;99.90
19586;DHT22;9939;49.246;9.106;2022-10-15T03:05:38;15.00;99.90
19586;DHT22;9939;49.246;9.106;2022-10-15T03:08:05;15.20;99.90
19586;DHT22;9939;49.246;9.106;2022-10-15T03:10:33;15.20;99.90
19586;DHT22;9939;49.246;9.106;2022-10-15T03:13:02;15.30;99.90
19586;DHT22;9939;49.246;9.106;2022-10-15T03:15:32;15.30;99.90
19586;DHT22;9939;49.246;9.106;2022-10-15T03:18:00;15.40;99.90
19586;DHT22;9939;49.246;9.106;2022-10-15T03:20:27;15.40;99.90
19586;DHT22;9939;49.246;9.106;2022-10-15T03:22:54;15.40;99.90
19586;DHT22;9939;49.246;9.106;2022-10-15T03:25:21;15.40;99.90
19586;DHT22;9939;49.246;9.106;2022-10-15T03:27:58;15.50;99.90
19586;DHT22;9939;49.246;9.106;2022-10-15T03:30:34;15.40;99.90
19586;DHT22;9939;49.246;9.106;2022-10-15T03:33:01;15.50;99.90
19586;DHT22;9939;49.246;9.106;2022-10-15T03:35:28;15.40;99.90
19586;DHT22;9939;49.246;9.106;2022-10-15T03:37:56;15.50;99.90
19586;DHT22;9939;49.246;9.106;2022-10-15T03:40:23;15.50;99.90
19586;DHT22;9939;49.246;9.106;2022-10-15T03:42:54;15.50;99.90
19586;DHT22;9939;49.246;9.106;2022-10-15T03:45:24;15.50;99.90
19586;DHT22;9939;49.246;9.106;2022-10-15T03:48:06;15.50;99.90
19586;DHT22;9939;49.246;9.106;2022-10-15T03:50:33;15.50;99.90
19586;DHT22;9939;49.246;9.106;2022-10-15T03:53:03;15.50;99.90
19586;DHT22;9939;49.246;9.106;2022-10-15T03:55:31;15.50;99.90
19586;DHT22;9939;49.246;9.106;2022-10-15T03:57:58;15.60;99.90
19586;DHT22;9939;49.246;9.106;2022-10-15T04:00:26;15.50;99.90
19586;DHT22;9939;49.246;9.106;2022-10-15T04:02:57;15.50;99.90
19586;DHT22;9939;49.246;9.106;2022-10-15T04:05:26;15.50;99.90
19586;DHT22;9939;49.246;9.106;2022-10-15T04:08:00;15.50;99.90
19586;DHT22;9939;49.246;9.106;2022-10-15T04:10:30;15.60;99.90
19586;DHT22;9939;49.246;9.106;2022-10-15T04:12:58;15.50;99.90
19586;DHT22;9939;49.246;9.106;2022-10-15T04:15:25;15.50;99.90
19586;DHT22;9939;49.246;9.106;2022-10-15T04:17:58;15.50;99.90
19586;DHT22;9939;49.246;9.106;2022-10-15T04:20:27;15.50;99.90
19586;DHT22;9939;49.246;9.106;2022-10-15T04:23:06;15.60;99.90
19586;DHT22;9939;49.246;9.106;2022-10-15T04:25:35;15.60;99.90
19586;DHT22;9939;49.246;9.106;2022-10-15T04:28:03;15.60;99.90
19586;DHT22;9939;49.246;9.106;2022-10-15T04:30:32;15.60;99.90
19586;DHT22;9939;49.246;9.106;2022-10-15T04:33:02;15.60;99.90
19586;DHT22;9939;49.246;9.106;2022-10-15T04:35:30;15.60;99.90
19586;DHT22;9939;49.246;9.106;2022-10-15T04:38:07;15.60;99.90
19586;DHT22;9939;49.246;9.106;2022-10-15T04:41:12;15.60;99.90
19586;DHT22;9939;49.246;9.106;2022-10-15T04:43:56;15.60;99.90
19586;DHT22;9939;49.246;9.106;2022-10-15T04:46:24;15.60;99.90
19586;DHT22;9939;49.246;9.106;2022-10-15T04:48:52;15.60;99.90
19586;DHT22;9939;49.246;9.106;2022-10-15T04:51:24;15.50;99.90
19586;DHT22;9939;49.246;9.106;2022-10-15T04:54:11;15.50;99.90
19586;DHT22;9939;49.246;9.106;2022-10-15T04:56:53;15.60;99.90
19586;DHT22;9939;49.246;9.106;2022-10-15T04:59:21;15.50;99.90
19586;DHT22;9939;49.246;9.106;2022-10-15T05:02:17;15.60;99.90
19586;DHT22;9939;49.246;9.106;2022-10-15T05:04:49;15.60;99.90
19586;DHT22;9939;49.246;9.106;2022-10-15T05:07:16;15.50;99.90
19586;DHT22;9939;49.246;9.106;2022-10-15T05:09:44;15.50;99.90
19586;DHT22;9939;49.246;9.106;2022-10-15T05:12:12;15.50;99.90
19586;DHT22;9939;49.246;9.106;2022-10-15T05:14:39;15.50;99.90
19586;DHT22;9939;49.246;9.106;2022-10-15T05:17:17;15.50;99.90
19586;DHT22;9939;49.246;9.106;2022-10-15T05:19:44;15.50;99.90
19586;DHT22;9939;49.246;9.106;2022-10-15T05:22:21;15.50;99.90
19586;DHT22;9939;49.246;9.106;2022-10-15T05:24:52;15.50;99.90
19586;DHT22;9939;49.246;9.106;2022-10-15T05:27:25;15.50;99.90
19586;DHT22;9939;49.246;9.106;2022-10-15T05:29:52;15.50;99.90
19586;DHT22;9939;49.246;9.106;2022-10-15T05:32:19;15.50;99.90
19586;DHT22;9939;49.246;9.106;2022-10-15T05:34:50;15.50;99.90
19586;DHT22;9939;49.246;9.106;2022-10-15T05:37:17;15.40;99.90
19586;DHT22;9939;49.246;9.106;2022-10-15T05:39:45;15.40;99.90
19586;DHT22;9939;49.246;9.106;2022-10-15T05:42:12;15.40;99.90
19586;DHT22;9939;49.246;9.106;2022-10-15T05:44:50;15.40;99.90
19586;DHT22;9939;49.246;9.106;2022-10-15T05:47:19;15.50;99.90
19586;DHT22;9939;49.246;9.106;2022-10-15T05:49:47;15.50;99.90
19586;DHT22;9939;49.246;9.106;2022-10-15T05:52:21;15.40;99.90
19586;DHT22;9939;49.246;9.106;2022-10-15T05:55:09;15.40;99.90
19586;DHT22;9939;49.246;9.106;2022-10-15T05:57:36;15.40;99.90
19586;DHT22;9939;49.246;9.106;2022-10-15T06:00:05;15.40;99.90
19586;DHT22;9939;49.246;9.106;2022-10-15T06:02:39;15.40;99.90
19586;DHT22;9939;49.246;9.106;2022-10-15T06:05:06;15.40;99.90
19586;DHT22;9939;49.246;9.106;2022-10-15T06:07:33;15.40;99.90
19586;DHT22;9939;49.246;9.106;2022-10-15T06:10:04;15.30;99.90
19586;DHT22;9939;49.246;9.106;2022-10-15T06:12:33;15.40;99.90
19586;DHT22;9939;49.246;9.106;2022-10-15T06:15:00;15.40;99.90
19586;DHT22;9939;49.246;9.106;2022-10-15T06:17:27;15.40;99.90
19586;DHT22;9939;49.246;9.106;2022-10-15T06:19:54;15.40;99.90
19586;DHT22;9939;49.246;9.106;2022-10-15T06:22:21;15.40;99.90
19586;DHT22;9939;49.246;9.106;2022-10-15T06:24:48;15.40;99.90
19586;DHT22;9939;49.246;9.106;2022-10-15T06:27:15;15.40;99.90
19586;DHT22;9939;49.246;9.106;2022-10-15T06:29:42;15.40;99.90
19586;DHT22;9939;49.246;9.106;2022-10-15T06:32:10;15.40;99.90
19586;DHT22;9939;49.246;9.106;2022-10-15T06:34:42;15.50;99.90
19586;DHT22;9939;49.246;9.106;2022-10-15T06:37:10;15.50;99.90
19586;DHT22;9939;49.246;9.106;2022-10-15T06:39:37;15.40;99.90
19586;DHT22;9939;49.246;9.106;2022-10-15T06:42:05;15.30;99.90
19586;DHT22;9939;49.246;9.106;2022-10-15T06:45:22;15.40;99.90
19586;DHT22;9939;49.246;9.106;2022-10-15T06:47:49;15.30;99.90
19586;DHT22;9939;49.246;9.106;2022-10-15T06:50:16;15.30;99.90
19586;DHT22;9939;49.246;9.106;2022-10-15T06:52:43;15.30;99.90
19586;DHT22;9939;49.246;9.106;2022-10-15T06:55:10;15.30;99.90
19586;DHT22;9939;49.246;9.106;2022-10-15T06:57:37;15.30;99.90
19586;DHT22;9939;49.246;9.106;2022-10-15T07:00:05;15.30;99.90
19586;DHT22;9939;49.246;9.106;2022-10-15T07:02:34;15.20;99.90
19586;DHT22;9939;49.246;9.106;2022-10-15T07:05:02;15.20;99.90
19586;DHT22;9939;49.246;9.106;2022-10-15T07:07:29;15.20;99.90
19586;DHT22;9939;49.246;9.106;2022-10-15T07:09:55;15.30;99.90
19586;DHT22;9939;49.246;9.106;2022-10-15T07:12:22;15.30;99.90
19586;DHT22;9939;49.246;9.106;2022-10-15T07:14:50;15.40;99.90
19586;DHT22;9939;49.246;9.106;2022-10-15T07:17:18;15.40;99.90
19586;DHT22;9939;49.246;9.106;2022-10-15T07:19:44;15.40;99.90
19586;DHT22;9939;49.246;9.106;2022-10-15T07:22:11;15.40;99.90
19586;DHT22;9939;49.246;9.106;2022-10-15T07:24:38;15.40;99.90
19586;DHT22;9939;49.246;9.106;2022-10-15T07:27:05;15.40;99.90
19586;DHT22;9939;49.246;9.106;2022-10-15T07:29:42;15.40;99.90
19586;DHT22;9939;49.246;9.106;2022-10-15T07:32:09;15.40;99.90
19586;DHT22;9939;49.246;9.106;2022-10-15T07:34:36;15.30;99.90
19586;DHT22;9939;49.246;9.106;2022-10-15T07:37:03;15.30;99.90
19586;DHT22;9939;49.246;9.106;2022-10-15T07:39:30;15.30;99.90
19586;DHT22;9939;49.246;9.106;2022-10-15T07:41:57;15.40;99.90
19586;DHT22;9939;49.246;9.106;2022-10-15T07:44:24;15.40;99.90
19586;DHT22;9939;49.246;9.106;2022-10-15T07:46:51;15.40;99.90
19586;DHT22;9939;49.246;9.106;2022-10-15T07:49:18;15.50;99.90
19586;DHT22;9939;49.246;9.106;2022-10-15T07:51:45;15.40;99.90
19586;DHT22;9939;49.246;9.106;2022-10-15T07:54:12;15.30;99.90
19586;DHT22;9939;49.246;9.106;2022-10-15T07:56:39;15.40;99.90
19586;DHT22;9939;49.246;9.106;2022-10-15T07:59:07;15.50;99.90
19586;DHT22;9939;49.246;9.106;2022-10-15T08:01:34;15.40;99.90
19586;DHT22;9939;49.246;9.106;2022-10-15T08:04:01;15.50;99.90
19586;DHT22;9939;49.246;9.106;2022-10-15T08:06:30;15.50;99.90
19586;DHT22;9939;49.246;9.106;2022-10-15T08:08:57;15.50;99.90
19586;DHT22;9939;49.246;9.106;2022-10-15T08:11:27;15.50;99.90
19586;DHT22;9939;49.246;9.106;2022-10-15T08:13:54;15.60;99.90
19586;DHT22;9939;49.246;9.106;2022-10-15T08:16:21;15.60;99.90
19586;DHT22;9939;49.246;9.106;2022-10-15T08:18:57;15.70;99.90
19586;DHT22;9939;49.246;9.106;2022-10-15T08:21:24;15.70;99.90
19586;DHT22;9939;49.246;9.106;2022-10-15T08:23:51;15.80;99.90
19586;DHT22;9939;49.246;9.106;2022-10-15T08:26:28;15.70;99.90
19586;DHT22;9939;49.246;9.106;2022-10-15T08:28:55;15.80;99.90
19586;DHT22;9939;49.246;9.106;2022-10-15T08:31:22;15.80;99.90
19586;DHT22;9939;49.246;9.106;2022-10-15T08:33:49;15.70;99.90
19586;DHT22;9939;49.246;9.106;2022-10-15T08:36:16;15.60;99.90
19586;DHT22;9939;49.246;9.106;2022-10-15T08:38:43;15.70;99.90
19586;DHT22;9939;49.246;9.106;2022-10-15T08:43:58;15.70;99.90
19586;DHT22;9939;49.246;9.106;2022-10-15T08:46:39;15.70;99.90
19586;DHT22;9939;49.246;9.106;2022-10-15T08:49:59;15.70;99.90
19586;DHT22;9939;49.246;9.106;2022-10-15T08:52:15;15.70;99.90
19586;DHT22;9939;49.246;9.106;2022-10-15T08:54:44;15.90;99.90
19586;DHT22;9939;49.246;9.106;2022-10-15T08:57:46;15.80;99.90
19586;DHT22;9939;49.246;9.106;2022-10-15T09:00:23;15.90;99.90
19586;DHT22;9939;49.246;9.106;2022-10-15T09:14:06;16.20;99.90
19586;DHT22;9939;49.246;9.106;2022-10-15T09:16:37;16.30;99.90
19586;DHT22;9939;49.246;9.106;2022-10-15T09:19:16;16.30;99.90
19586;DHT22;9939;49.246;9.106;2022-10-15T09:21:48;16.30;99.90
19586;DHT22;9939;49.246;9.106;2022-10-15T09:24:23;16.30;99.90
19586;DHT22;9939;49.246;9.106;2022-10-15T09:29:59;16.50;99.90
19586;DHT22;9939;49.246;9.106;2022-10-15T09:32:40;16.60;99.90
19586;DHT22;9939;49.246;9.106;2022-10-15T09:43:45;16.40;99.90
19586;DHT22;9939;49.246;9.106;2022-10-15T09:46:13;16.40;99.90
19586;DHT22;9939;49.246;9.106;2022-10-15T09:49:05;16.40;99.90
19586;DHT22;9939;49.246;9.106;2022-10-15T09:51:56;16.50;99.90
19586;DHT22;9939;49.246;9.106;2022-10-15T09:57:08;16.40;99.90
19586;DHT22;9939;49.246;9.106;2022-10-15T09:59:37;16.50;99.90
19586;DHT22;9939;49.246;9.106;2022-10-15T10:02:17;16.40;99.90
19586;DHT22;9939;49.246;9.106;2022-10-15T10:04:45;16.50;99.90
19586;DHT22;9939;49.246;9.106;2022-10-15T10:07:35;16.50;99.90
19586;DHT22;9939;49.246;9.106;2022-10-15T10:10:26;16.40;99.90
19586;DHT22;9939;49.246;9.106;2022-10-15T10:12:55;16.40;99.90
19586;DHT22;9939;49.246;9.106;2022-10-15T10:15:34;16.40;99.90
19586;DHT22;9939;49.246;9.106;2022-10-15T10:18:02;16.50;99.90
19586;DHT22;9939;49.246;9.106;2022-10-15T10:20:33;16.50;99.90
19586;DHT22;9939;49.246;9.106;2022-10-15T10:23:05;16.60;99.90
19586;DHT22;9939;49.246;9.106;2022-10-15T10:25:47;16.70;99.90
19586;DHT22;9939;49.246;9.106;2022-10-15T10:28:18;16.80;99.90
19586;DHT22;9939;49.246;9.106;2022-10-15T10:33:27;16.80;99.90
19586;DHT22;9939;49.246;9.106;2022-10-15T10:35:55;17.10;99.90
19586;DHT22;9939;49.246;9.106;2022-10-15T10:38:31;17.10;99.90
19586;DHT22;9939;49.246;9.106;2022-10-15T10:41:05;17.00;99.90
19586;DHT22;9939;49.246;9.106;2022-10-15T10:43:52;17.10;99.90
19586;DHT22;9939;49.246;9.106;2022-10-15T10:46:21;17.30;99.90
19586;DHT22;9939;49.246;9.106;2022-10-15T10:48:52;17.50;99.90
19586;DHT22;9939;49.246;9.106;2022-10-15T10:51:20;17.60;99.90
19586;DHT22;9939;49.246;9.106;2022-10-15T10:54:03;17.70;99.90
19586;DHT22;9939;49.246;9.106;2022-10-15T10:56:43;17.70;99.90
19586;DHT22;9939;49.246;9.106;2022-10-15T10:59:19;17.90;99.90
19586;DHT22;9939;49.246;9.106;2022-10-15T11:01:49;18.10;99.90
19586;DHT22;9939;49.246;9.106;2022-10-15T11:04:29;18.20;99.90
19586;DHT22;9939;49.246;9.106;2022-10-15T11:12:57;19.10;99.90
19586;DHT22;9939;49.246;9.106;2022-10-15T11:29:00;19.90;99.90
19586;DHT22;9939;49.246;9.106;2022-10-15T11:34:57;20.80;99.90
19586;DHT22;9939;49.246;9.106;2022-10-15T11:37:49;20.80;99.90
19586;DHT22;9939;49.246;9.106;2022-10-15T11:41:13;20.70;99.90
19586;DHT22;9939;49.246;9.106;2022-10-15T11:43:21;21.00;99.90
19586;DHT22;9939;49.246;9.106;2022-10-15T11:46:02;21.70;99.90
19586;DHT22;9939;49.246;9.106;2022-10-15T11:56:45;21.90;99.90
19586;DHT22;9939;49.246;9.106;2022-10-15T11:59:53;22.30;99.90
19586;DHT22;9939;49.246;9.106;2022-10-15T12:02:37;22.70;99.90
19586;DHT22;9939;49.246;9.106;2022-10-15T12:05:12;21.80;99.90
19586;DHT22;9939;49.246;9.106;2022-10-15T12:07:43;21.90;99.90
19586;DHT22;9939;49.246;9.106;2022-10-15T12:12:56;21.00;99.90
19586;DHT22;9939;49.246;9.106;2022-10-15T12:20:42;20.30;99.90
19586;DHT22;9939;49.246;9.106;2022-10-15T12:28:55;22.20;99.90
19586;DHT22;9939;49.246;9.106;2022-10-15T12:31:46;21.60;99.90
19586;DHT22;9939;49.246;9.106;2022-10-15T12:34:30;20.90;99.90
19586;DHT22;9939;49.246;9.106;2022-10-15T12:37:21;20.70;99.90
19586;DHT22;9939;49.246;9.106;2022-10-15T12:40:02;20.40;99.90
19586;DHT22;9939;49.246;9.106;2022-10-15T12:42:33;20.30;99.90
19586;DHT22;9939;49.246;9.106;2022-10-15T12:45:05;20.20;99.90
19586;DHT22;9939;49.246;9.106;2022-10-15T12:50:20;19.80;99.90
19586;DHT22;9939;49.246;9.106;2022-10-15T12:55:26;19.80;99.90
19586;DHT22;9939;49.246;9.106;2022-10-15T12:57:59;19.60;99.90
19586;DHT22;9939;49.246;9.106;2022-10-15T13:00:40;19.50;99.90
19586;DHT22;9939;49.246;9.106;2022-10-15T13:03:26;19.50;99.90
19586;DHT22;9939;49.246;9.106;2022-10-15T13:05:55;19.30;99.90
19586;DHT22;9939;49.246;9.106;2022-10-15T13:08:43;19.00;99.90
19586;DHT22;9939;49.246;9.106;2022-10-15T13:11:27;19.00;99.90
19586;DHT22;9939;49.246;9.106;2022-10-15T13:14:01;19.00;99.90
19586;DHT22;9939;49.246;9.106;2022-10-15T13:16:29;19.00;99.90
19586;DHT22;9939;49.246;9.106;2022-10-15T13:18:56;19.00;99.90
19586;DHT22;9939;49.246;9.106;2022-10-15T13:21:48;18.90;99.90
19586;DHT22;9939;49.246;9.106;2022-10-15T13:24:25;19.00;99.90
19586;DHT22;9939;49.246;9.106;2022-10-15T13:26:53;19.00;99.90
19586;DHT22;9939;49.246;9.106;2022-10-15T13:29:26;18.80;99.90
19586;DHT22;9939;49.246;9.106;2022-10-15T13:31:55;18.70;99.90
19586;DHT22;9939;49.246;9.106;2022-10-15T13:34:28;18.70;99.90
19586;DHT22;9939;49.246;9.106;2022-10-15T13:36:58;18.70;99.90
19586;DHT22;9939;49.246;9.106;2022-10-15T13:39:36;18.70;99.90
19586;DHT22;9939;49.246;9.106;2022-10-15T13:42:19;18.70;99.90
19586;DHT22;9939;49.246;9.106;2022-10-15T13:45:00;18.70;99.90
19586;DHT22;9939;49.246;9.106;2022-10-15T13:55:20;18.50;99.90
19586;DHT22;9939;49.246;9.106;2022-10-15T13:57:49;18.40;99.90
19586;DHT22;9939;49.246;9.106;2022-10-15T14:00:23;18.30;99.90
19586;DHT22;9939;49.246;9.106;2022-10-15T14:03:15;18.30;99.90
19586;DHT22;9939;49.246;9.106;2022-10-15T14:05:44;18.40;99.90
19586;DHT22;9939;49.246;9.106;2022-10-15T14:08:32;18.60;99.90
19586;DHT22;9939;49.246;9.106;2022-10-15T14:10:59;18.80;99.90
19586;DHT22;9939;49.246;9.106;2022-10-15T14:13:27;18.80;99.90
19586;DHT22;9939;49.246;9.106;2022-10-15T14:16:01;19.00;99.90
19586;DHT22;9939;49.246;9.106;2022-10-15T14:18:43;19.20;99.90
19586;DHT22;9939;49.246;9.106;2022-10-15T14:21:18;19.40;99.90
19586;DHT22;9939;49.246;9.106;2022-10-15T14:23:47;19.40;99.90
19586;DHT22;9939;49.246;9.106;2022-10-15T14:26:14;19.20;99.90
19586;DHT22;9939;49.246;9.106;2022-10-15T14:28:49;19.00;99.90
19586;DHT22;9939;49.246;9.106;2022-10-15T14:31:36;18.70;99.90
19586;DHT22;9939;49.246;9.106;2022-10-15T14:34:44;18.60;99.90
19586;DHT22;9939;49.246;9.106;2022-10-15T14:43:27;18.50;99.90
19586;DHT22;9939;49.246;9.106;2022-10-15T14:45:30;18.60;99.90
19586;DHT22;9939;49.246;9.106;2022-10-15T14:48:01;18.50;99.90
19586;DHT22;9939;49.246;9.106;2022-10-15T14:50:35;18.50;99.90
19586;DHT22;9939;49.246;9.106;2022-10-15T14:56:01;18.80;99.90
19586;DHT22;9939;49.246;9.106;2022-10-15T14:58:29;18.80;99.90
19586;DHT22;9939;49.246;9.106;2022-10-15T15:01:04;18.80;99.90
19586;DHT22;9939;49.246;9.106;2022-10-15T15:03:40;18.50;99.90
19586;DHT22;9939;49.246;9.106;2022-10-15T15:06:08;18.30;99.90
19586;DHT22;9939;49.246;9.106;2022-10-15T15:08:35;18.20;99.90
19586;DHT22;9939;49.246;9.106;2022-10-15T15:11:04;18.10;99.90
19586;DHT22;9939;49.246;9.106;2022-10-15T15:13:38;18.20;99.90
19586;DHT22;9939;49.246;9.106;2022-10-15T15:16:07;18.20;99.90
19586;DHT22;9939;49.246;9.106;2022-10-15T15:18:35;18.30;99.90
19586;DHT22;9939;49.246;9.106;2022-10-15T15:21:04;18.30;99.90
19586;DHT22;9939;49.246;9.106;2022-10-15T15:23:33;18.30;99.90
19586;DHT22;9939;49.246;9.106;2022-10-15T15:26:00;18.10;99.90
19586;DHT22;9939;49.246;9.106;2022-10-15T15:28:28;18.00;99.90
19586;DHT22;9939;49.246;9.106;2022-10-15T15:31:01;18.00;99.90
19586;DHT22;9939;49.246;9.106;2022-10-15T15:33:28;17.90;99.90
19586;DHT22;9939;49.246;9.106;2022-10-15T15:36:16;17.80;99.90
19586;DHT22;9939;49.246;9.106;2022-10-15T15:38:49;17.80;99.90
19586;DHT22;9939;49.246;9.106;2022-10-15T15:41:21;17.60;99.90
19586;DHT22;9939;49.246;9.106;2022-10-15T15:43:49;17.60;99.90
19586;DHT22;9939;49.246;9.106;2022-10-15T15:46:16;17.40;99.90
19586;DHT22;9939;49.246;9.106;2022-10-15T15:48:43;17.50;99.90
19586;DHT22;9939;49.246;9.106;2022-10-15T15:53:44;17.30;99.90
19586;DHT22;9939;49.246;9.106;2022-10-15T15:56:11;17.30;99.90
19586;DHT22;9939;49.246;9.106;2022-10-15T15:58:38;17.20;99.90
19586;DHT22;9939;49.246;9.106;2022-10-15T16:01:05;17.00;99.90
19586;DHT22;9939;49.246;9.106;2022-10-15T16:03:33;16.90;99.90
19586;DHT22;9939;49.246;9.106;2022-10-15T16:06:00;16.70;99.90
19586;DHT22;9939;49.246;9.106;2022-10-15T16:08:27;16.40;99.90
19586;DHT22;9939;49.246;9.106;2022-10-15T16:10:54;16.30;99.90
19586;DHT22;9939;49.246;9.106;2022-10-15T16:13:21;16.30;99.90
19586;DHT22;9939;49.246;9.106;2022-10-15T16:15:48;16.20;99.90
19586;DHT22;9939;49.246;9.106;2022-10-15T16:18:15;16.20;99.90
19586;DHT22;9939;49.246;9.106;2022-10-15T16:20:42;16.10;99.90
19586;DHT22;9939;49.246;9.106;2022-10-15T16:23:15;16.10;99.90
19586;DHT22;9939;49.246;9.106;2022-10-15T16:25:42;16.10;99.90
19586;DHT22;9939;49.246;9.106;2022-10-15T16:28:09;15.90;99.90
19586;DHT22;9939;49.246;9.106;2022-10-15T16:30:36;15.90;99.90
19586;DHT22;9939;49.246;9.106;2022-10-15T16:33:04;15.80;99.90
19586;DHT22;9939;49.246;9.106;2022-10-15T16:35:37;15.70;99.90
19586;DHT22;9939;49.246;9.106;2022-10-15T16:38:04;15.70;99.90
19586;DHT22;9939;49.246;9.106;2022-10-15T16:40:31;15.70;99.90
19586;DHT22;9939;49.246;9.106;2022-10-15T16:42:59;15.70;99.90
19586;DHT22;9939;49.246;9.106;2022-10-15T16:45:26;15.60;99.90
19586;DHT22;9939;49.246;9.106;2022-10-15T16:47:53;15.60;99.90
19586;DHT22;9939;49.246;9.106;2022-10-15T16:50:20;15.50;99.90
19586;DHT22;9939;49.246;9.106;2022-10-15T16:52:48;15.40;99.90
19586;DHT22;9939;49.246;9.106;2022-10-15T16:55:15;15.40;99.90
19586;DHT22;9939;49.246;9.106;2022-10-15T16:57:42;15.40;99.90
19586;DHT22;9939;49.246;9.106;2022-10-15T17:00:10;15.40;99.90
19586;DHT22;9939;49.246;9.106;2022-10-15T17:02:37;15.40;99.90
19586;DHT22;9939;49.246;9.106;2022-10-15T17:05:05;15.30;99.90
19586;DHT22;9939;49.246;9.106;2022-10-15T17:07:32;15.20;99.90
19586;DHT22;9939;49.246;9.106;2022-10-15T17:09:59;15.20;99.90
19586;DHT22;9939;49.246;9.106;2022-10-15T17:12:26;15.20;99.90
19586;DHT22;9939;49.246;9.106;2022-10-15T17:14:54;15.20;99.90
19586;DHT22;9939;49.246;9.106;2022-10-15T17:17:21;15.20;99.90
19586;DHT22;9939;49.246;9.106;2022-10-15T17:19:48;15.30;99.90
19586;DHT22;9939;49.246;9.106;2022-10-15T17:22:15;15.30;99.90
19586;DHT22;9939;49.246;9.106;2022-10-15T17:24:43;15.40;99.90
19586;DHT22;9939;49.246;9.106;2022-10-15T17:27:10;15.50;99.90
19586;DHT22;9939;49.246;9.106;2022-10-15T17:29:37;15.50;99.90
19586;DHT22;9939;49.246;9.106;2022-10-15T17:32:04;15.50;99.90
19586;DHT22;9939;49.246;9.106;2022-10-15T17:34:31;15.50;99.90
19586;DHT22;9939;49.246;9.106;2022-10-15T17:36:58;15.50;99.90
19586;DHT22;9939;49.246;9.106;2022-10-15T17:39:25;15.50;99.90
19586;DHT22;9939;49.246;9.106;2022-10-15T17:41:52;15.50;99.90
19586;DHT22;9939;49.246;9.106;2022-10-15T17:44:19;15.50;99.90
19586;DHT22;9939;49.246;9.106;2022-10-15T17:46:46;15.50;99.90
19586;DHT22;9939;49.246;9.106;2022-10-15T17:49:14;15.40;99.90
19586;DHT22;9939;49.246;9.106;2022-10-15T17:51:45;15.50;99.90
19586;DHT22;9939;49.246;9.106;2022-10-15T17:54:12;15.30;99.90
19586;DHT22;9939;49.246;9.106;2022-10-15T17:56:40;15.50;99.90
19586;DHT22;9939;49.246;9.106;2022-10-15T17:59:09;15.40;99.90
19586;DHT22;9939;49.246;9.106;2022-10-15T18:01:39;15.50;99.90
19586;DHT22;9939;49.246;9.106;2022-10-15T18:04:28;15.40;99.90
19586;DHT22;9939;49.246;9.106;2022-10-15T18:06:55;15.40;99.90
19586;DHT22;9939;49.246;9.106;2022-10-15T18:09:24;15.30;99.90
19586;DHT22;9939;49.246;9.106;2022-10-15T18:11:54;15.10;99.90
19586;DHT22;9939;49.246;9.106;2022-10-15T18:14:27;15.20;99.90
19586;DHT22;9939;49.246;9.106;2022-10-15T18:16:55;15.30;99.90
19586;DHT22;9939;49.246;9.106;2022-10-15T18:19:22;15.30;99.90
19586;DHT22;9939;49.246;9.106;2022-10-15T18:21:51;15.20;99.90
19586;DHT22;9939;49.246;9.106;2022-10-15T18:24:19;15.20;99.90
19586;DHT22;9939;49.246;9.106;2022-10-15T18:26:49;15.20;99.90
19586;DHT22;9939;49.246;9.106;2022-10-15T18:29:16;15.30;99.90